createdAt,value
2018-09-21T00:00:52.146Z,80.75
2018-09-21T00:01:51.906Z,80.27
2018-09-21T00:02:51.905Z,80.36
2018-09-21T00:03:52.033Z,80.17
2018-09-21T00:04:51.790Z,80.75
2018-09-21T00:05:51.788Z,80.55
2018-09-21T00:06:51.736Z,80.94
2018-09-21T00:07:51.623Z,80.84
2018-09-21T00:08:51.749Z,80.84
2018-09-21T00:09:51.549Z,81.09
2018-09-21T00:10:51.508Z,81.28
2018-09-21T00:11:51.508Z,81.38
2018-09-21T00:12:51.430Z,81.48
2018-09-21T00:13:51.431Z,81.48
2018-09-21T00:14:51.313Z,81.28
2018-09-21T00:15:51.313Z,81.38
2018-09-21T00:16:51.275Z,80.80
2018-09-21T00:17:51.202Z,80.99
2018-09-21T00:18:51.197Z,80.71
2018-09-21T00:19:51.153Z,81.19
2018-09-21T00:20:51.035Z,80.90
2018-09-21T00:21:51.076Z,80.80
2018-09-21T00:22:50.955Z,80.71
2018-09-21T00:23:50.916Z,80.17
2018-09-21T00:24:50.919Z,80.46
2018-09-21T00:25:50.800Z,80.27
2018-09-21T00:26:50.800Z,80.07
2018-09-21T00:27:50.720Z,80.17
2018-09-21T00:28:50.680Z,79.40
2018-09-21T00:29:50.718Z,79.02
2018-09-21T00:30:50.602Z,79.50
2018-09-21T00:31:50.563Z,79.02
2018-09-21T00:32:50.574Z,79.11
2018-09-21T00:33:50.446Z,78.63
2018-09-21T00:34:50.601Z,78.73
2018-09-21T00:35:50.362Z,78.73
2018-09-21T00:36:50.325Z,78.53
2018-09-21T00:37:50.327Z,78.73
2018-09-21T00:38:50.211Z,78.73
2018-09-21T00:39:50.244Z,78.06
2018-09-21T00:40:50.123Z,78.34
2018-09-21T00:41:50.093Z,78.15
2018-09-21T00:42:50.091Z,77.19
2018-09-21T00:43:50.013Z,77.58
2018-09-21T00:44:50.014Z,77.29
2018-09-21T00:45:49.890Z,76.71
2018-09-21T00:46:49.891Z,76.61
2018-09-21T00:47:49.857Z,76.71
2018-09-21T00:48:49.776Z,76.32
2018-09-21T00:49:49.777Z,75.94
2018-09-21T00:50:49.738Z,75.84
2018-09-21T00:51:49.626Z,75.27
2018-09-21T00:52:49.621Z,75.17
2018-09-21T00:53:49.541Z,75.27
2018-09-21T00:54:49.535Z,75.59
2018-09-21T00:55:49.542Z,75.02
2018-09-21T00:56:49.416Z,74.44
2018-09-21T00:57:49.387Z,74.73
2018-09-21T00:58:49.306Z,74.73
2018-09-21T00:59:49.268Z,74.54
2018-09-21T01:00:49.308Z,74.98
2018-09-21T01:01:49.184Z,74.82
2018-09-21T01:02:49.150Z,74.60
2018-09-21T01:03:49.151Z,75.07
2018-09-21T01:04:49.048Z,75.07
2018-09-21T01:05:49.073Z,75.27
2018-09-21T01:06:49.033Z,75.37
2018-09-21T01:07:48.955Z,75.56
2018-09-21T01:08:48.916Z,75.17
2018-09-21T01:09:48.815Z,75.94
2018-09-21T01:10:48.797Z,75.49
2018-09-21T01:11:48.730Z,75.31
2018-09-21T01:12:48.714Z,75.40
2018-09-21T01:13:48.680Z,75.11
2018-09-21T01:14:48.599Z,75.11
2018-09-21T01:15:48.561Z,75.40
2018-09-21T01:16:48.561Z,75.49
2018-09-21T01:17:48.495Z,75.49
2018-09-21T01:18:48.445Z,75.40
2018-09-21T01:19:48.367Z,75.49
2018-09-21T01:20:48.326Z,75.11
2018-09-21T01:21:48.353Z,75.40
2018-09-21T01:22:48.256Z,75.11
2018-09-21T01:23:48.210Z,75.40
2018-09-21T01:24:48.224Z,75.02
2018-09-21T01:25:48.091Z,74.63
2018-09-21T01:26:48.095Z,74.73
2018-09-21T01:27:48.093Z,74.54
2018-09-21T01:28:47.975Z,74.54
2018-09-21T01:29:47.897Z,74.54
2018-09-21T01:30:47.873Z,74.15
2018-09-21T01:31:47.863Z,74.05
2018-09-21T01:32:47.912Z,73.77
2018-09-21T01:33:47.739Z,73.57
2018-09-21T01:34:47.741Z,74.05
2018-09-21T01:35:47.627Z,73.86
2018-09-21T01:36:47.633Z,73.77
2018-09-21T01:37:47.635Z,73.28
2018-09-21T01:38:47.544Z,73.77
2018-09-21T01:39:47.508Z,73.77
2018-09-21T01:40:47.428Z,73.57
2018-09-21T01:41:47.387Z,73.38
2018-09-21T01:42:47.396Z,73.57
2018-09-21T01:43:47.269Z,73.77
2018-09-21T01:44:47.273Z,73.57
2018-09-21T01:45:47.182Z,73.67
2018-09-21T01:46:47.186Z,73.77
2018-09-21T01:47:47.152Z,73.28
2018-09-21T01:48:47.037Z,73.96
2018-09-21T01:49:47.066Z,73.47
2018-09-21T01:50:46.950Z,73.57
2018-09-21T01:51:46.916Z,74.15
2018-09-21T01:52:46.916Z,73.96
2018-09-21T01:53:46.835Z,73.86
2018-09-21T01:54:46.834Z,73.96
2018-09-21T01:55:46.716Z,74.05
2018-09-21T01:56:46.681Z,74.11
2018-09-21T01:57:46.684Z,74.40
2018-09-21T01:58:46.597Z,75.37
2018-09-21T01:59:46.600Z,74.98
2018-09-21T02:00:46.564Z,75.17
2018-09-21T02:01:46.449Z,75.17
2018-09-21T02:02:46.447Z,74.98
2018-09-21T02:03:46.364Z,75.56
2018-09-21T02:04:46.361Z,75.65
2018-09-21T02:05:46.329Z,76.04
2018-09-21T02:06:46.329Z,75.65
2018-09-21T02:07:46.211Z,75.65
2018-09-21T02:08:46.131Z,75.65
2018-09-21T02:09:46.133Z,75.94
2018-09-21T02:11:07.094Z,75.94
2018-09-21T02:11:46.009Z,75.75
2018-09-21T02:12:45.977Z,75.37
2018-09-21T02:13:45.891Z,75.65
2018-09-21T02:14:45.859Z,75.65
2018-09-21T02:15:45.890Z,75.94
2018-09-21T02:16:45.771Z,75.84
2018-09-21T02:17:45.819Z,75.84
2018-09-21T02:18:45.743Z,75.65
2018-09-21T02:19:45.665Z,75.56
2018-09-21T02:20:45.625Z,75.27
2018-09-21T02:21:45.543Z,75.56
2018-09-21T02:22:45.545Z,75.65
2018-09-21T02:23:45.626Z,75.56
2018-09-21T02:24:45.429Z,75.94
2018-09-21T02:25:45.387Z,75.75
2018-09-21T02:26:47.428Z,75.94
2018-09-21T02:27:45.310Z,75.75
2018-09-21T02:28:45.391Z,75.75
2018-09-21T02:29:45.272Z,76.14
2018-09-21T02:30:45.152Z,76.14
2018-09-21T02:31:45.155Z,75.94
2018-09-21T02:32:45.155Z,75.94
2018-09-21T02:33:45.036Z,76.04
2018-09-21T02:34:44.949Z,75.56
2018-09-21T02:35:45.038Z,75.75
2018-09-21T02:36:44.919Z,75.75
2018-09-21T02:37:45.040Z,76.04
2018-09-21T02:38:44.921Z,76.32
2018-09-21T02:39:44.801Z,76.14
2018-09-21T02:40:44.802Z,76.42
2018-09-21T02:41:44.803Z,76.57
2018-09-21T02:42:44.804Z,76.48
2018-09-21T02:43:44.805Z,76.67
2018-09-21T02:44:44.566Z,76.96
2018-09-21T02:45:44.568Z,76.57
2018-09-21T02:46:44.728Z,76.96
2018-09-21T02:47:44.448Z,76.86
2018-09-21T02:48:44.501Z,76.39
2018-09-21T02:49:44.451Z,75.65
2018-09-21T02:50:44.333Z,75.56
2018-09-21T02:51:44.336Z,75.27
2018-09-21T02:52:44.213Z,74.79
2018-09-21T02:53:44.215Z,74.69
2018-09-21T02:54:44.215Z,74.40
2018-09-21T02:55:44.099Z,74.40
2018-09-21T02:56:44.098Z,74.50
2018-09-21T02:57:43.980Z,74.69
2018-09-21T02:58:43.981Z,75.07
2018-09-21T02:59:44.102Z,75.27
2018-09-21T03:00:43.962Z,75.65
2018-09-21T03:01:43.862Z,75.46
2018-09-21T03:02:43.744Z,75.90
2018-09-21T03:03:43.745Z,75.71
2018-09-21T03:04:43.868Z,75.71
2018-09-21T03:05:43.746Z,76.14
2018-09-21T03:06:43.627Z,76.19
2018-09-21T03:07:43.668Z,76.00
2018-09-21T03:08:43.510Z,75.90
2018-09-21T03:09:43.509Z,75.90
2018-09-21T03:10:43.512Z,76.09
2018-09-21T03:11:43.391Z,75.81
2018-09-21T03:12:43.394Z,76.32
2018-09-21T03:13:43.395Z,76.29
2018-09-21T03:14:43.276Z,76.39
2018-09-21T03:15:43.159Z,76.39
2018-09-21T03:16:43.159Z,76.48
2018-09-21T03:17:43.161Z,76.00
2018-09-21T03:18:43.164Z,75.90
2018-09-21T03:19:43.039Z,75.81
2018-09-21T03:20:42.920Z,76.00
2018-09-21T03:21:43.042Z,75.90
2018-09-21T03:22:42.923Z,75.71
2018-09-21T03:23:42.803Z,75.62
2018-09-21T03:24:42.804Z,75.56
2018-09-21T03:25:42.805Z,75.37
2018-09-21T03:26:42.859Z,75.07
2018-09-21T03:27:42.687Z,74.69
2018-09-21T03:28:42.569Z,74.02
2018-09-21T03:29:42.569Z,73.96
2018-09-21T03:30:42.571Z,73.44
2018-09-21T03:31:42.572Z,73.47
2018-09-21T03:32:42.452Z,73.38
2018-09-21T03:33:42.333Z,72.71
2018-09-21T03:34:42.333Z,72.71
2018-09-21T03:35:43.535Z,72.52
2018-09-21T03:36:42.214Z,71.65
2018-09-21T03:37:42.338Z,71.26
2018-09-21T03:38:42.219Z,71.17
2018-09-21T03:39:42.097Z,71.08
2018-09-21T03:40:42.099Z,71.55
2018-09-21T03:41:41.917Z,71.84
2018-09-21T03:42:41.915Z,71.94
2018-09-21T03:43:41.985Z,72.03
2018-09-21T03:44:41.796Z,71.94
2018-09-21T03:45:41.797Z,71.46
2018-09-21T03:46:41.679Z,72.03
2018-09-21T03:47:41.631Z,71.65
2018-09-21T03:48:41.753Z,71.84
2018-09-21T03:49:41.564Z,72.13
2018-09-21T03:50:41.559Z,72.52
2018-09-21T03:51:41.442Z,72.23
2018-09-21T03:52:41.442Z,72.03
2018-09-21T03:53:41.511Z,71.94
2018-09-21T03:54:41.331Z,71.36
2018-09-21T03:55:41.282Z,71.55
2018-09-21T03:56:41.280Z,71.65
2018-09-21T03:57:41.202Z,71.26
2018-09-21T03:58:42.242Z,71.75
2018-09-21T03:59:41.092Z,71.84
2018-09-21T04:00:41.083Z,71.65
2018-09-21T04:01:41.042Z,71.36
2018-09-21T04:02:40.925Z,72.03
2018-09-21T04:03:40.925Z,72.13
2018-09-21T04:04:40.849Z,72.23
2018-09-21T04:05:40.928Z,72.32
2018-09-21T04:06:40.805Z,72.03
2018-09-21T04:07:40.728Z,72.71
2018-09-21T04:08:40.689Z,73.28
2018-09-21T04:09:40.607Z,73.09
2018-09-21T04:10:40.609Z,73.47
2018-09-21T04:11:40.571Z,73.38
2018-09-21T04:12:40.490Z,73.47
2018-09-21T04:13:40.451Z,73.28
2018-09-21T04:14:42.495Z,73.19
2018-09-21T04:15:40.372Z,73.25
2018-09-21T04:16:40.334Z,73.25
2018-09-21T04:17:40.256Z,74.02
2018-09-21T04:18:40.218Z,74.05
2018-09-21T04:19:41.297Z,73.25
2018-09-21T04:20:40.216Z,73.28
2018-09-21T04:21:40.097Z,74.05
2018-09-21T04:22:40.014Z,73.54
2018-09-21T04:23:39.980Z,74.60
2018-09-21T04:24:40.021Z,74.02
2018-09-21T04:25:39.981Z,73.92
2018-09-21T04:26:39.863Z,74.40
2018-09-21T04:27:39.864Z,74.60
2018-09-21T04:28:39.747Z,74.98
2018-09-21T04:29:39.744Z,75.17
2018-09-21T04:30:39.669Z,75.37
2018-09-21T04:31:39.627Z,75.27
2018-09-21T04:32:39.669Z,75.56
2018-09-21T04:33:39.515Z,75.94
2018-09-21T04:34:39.547Z,76.32
2018-09-21T04:35:39.546Z,76.32
2018-09-21T04:36:39.421Z,76.23
2018-09-21T04:37:39.433Z,76.42
2018-09-21T04:38:39.398Z,76.52
2018-09-21T04:39:39.275Z,76.04
2018-09-21T04:40:39.195Z,76.32
2018-09-21T04:41:39.159Z,77.09
2018-09-21T04:42:39.158Z,77.09
2018-09-21T04:43:39.160Z,77.00
2018-09-21T04:44:39.039Z,77.29
2018-09-21T04:45:39.075Z,77.73
2018-09-21T04:46:38.925Z,77.58
2018-09-21T04:47:38.923Z,77.48
2018-09-21T04:48:38.922Z,76.71
2018-09-21T04:49:38.804Z,76.71
2018-09-21T04:50:38.805Z,77.09
2018-09-21T04:51:38.706Z,77.48
2018-09-21T04:52:38.687Z,77.63
2018-09-21T04:53:38.688Z,78.11
2018-09-21T04:54:38.574Z,78.21
2018-09-21T04:55:38.569Z,78.21
2018-09-21T04:56:38.489Z,77.96
2018-09-21T04:57:38.453Z,78.50
2018-09-21T04:58:38.467Z,78.59
2018-09-21T04:59:38.333Z,78.50
2018-09-21T05:00:38.335Z,78.63
2018-09-21T05:01:38.251Z,78.63
2018-09-21T05:02:38.216Z,79.21
2018-09-21T05:03:38.230Z,78.92
2018-09-21T05:04:38.112Z,78.92
2018-09-21T05:05:38.146Z,79.46
2018-09-21T05:06:38.018Z,79.17
2018-09-21T05:07:37.987Z,79.94
2018-09-21T05:08:37.997Z,80.90
2018-09-21T05:09:37.910Z,81.38
2018-09-21T05:10:37.910Z,81.05
2018-09-21T05:11:37.793Z,81.34
2018-09-21T05:12:37.753Z,81.92
2018-09-21T05:13:37.761Z,81.82
2018-09-21T05:14:37.637Z,82.10
2018-09-21T05:15:37.632Z,82.40
2018-09-21T05:16:37.550Z,82.93
2018-09-21T05:17:37.514Z,83.12
2018-09-21T05:18:37.566Z,84.37
2018-09-21T05:19:38.439Z,84.47
2018-09-21T05:20:37.399Z,85.14
2018-09-21T05:21:37.402Z,84.85
2018-09-21T05:22:37.278Z,84.66
2018-09-21T05:23:37.286Z,85.08
2018-09-21T05:24:37.193Z,85.42
2018-09-21T05:25:37.167Z,86.10
2018-09-21T05:26:37.160Z,85.57
2018-09-21T05:27:37.057Z,85.08
2018-09-21T05:28:37.042Z,85.08
2018-09-21T05:29:37.044Z,84.41
2018-09-21T05:30:36.925Z,84.41
2018-09-21T05:31:36.930Z,83.30
2018-09-21T05:32:36.809Z,83.93
2018-09-21T05:33:36.818Z,83.26
2018-09-21T05:34:36.888Z,83.93
2018-09-21T05:35:36.688Z,83.84
2018-09-21T05:36:36.689Z,84.60
2018-09-21T05:37:36.577Z,84.31
2018-09-21T05:38:36.572Z,84.51
2018-09-21T05:39:36.572Z,84.51
2018-09-21T05:40:36.453Z,84.31
2018-09-21T05:41:36.455Z,84.41
2018-09-21T05:42:36.377Z,84.03
2018-09-21T05:43:36.338Z,83.36
2018-09-21T05:44:36.337Z,84.22
2018-09-21T05:45:36.220Z,83.93
2018-09-21T05:46:36.256Z,83.49
2018-09-21T05:47:36.138Z,83.20
2018-09-21T05:48:36.101Z,83.20
2018-09-21T05:49:36.013Z,83.49
2018-09-21T05:50:36.102Z,83.01
2018-09-21T05:51:35.984Z,83.01
2018-09-21T05:52:35.899Z,83.40
2018-09-21T05:53:35.867Z,83.40
2018-09-21T05:54:35.867Z,83.49
2018-09-21T05:55:35.867Z,83.59
2018-09-21T05:56:35.750Z,82.92
2018-09-21T05:57:35.664Z,83.11
2018-09-21T05:58:35.631Z,83.01
2018-09-21T05:59:35.633Z,83.01
2018-09-21T06:00:35.634Z,83.40
2018-09-21T06:01:35.515Z,83.11
2018-09-21T06:02:35.478Z,83.40
2018-09-21T06:03:35.396Z,83.49
2018-09-21T06:04:35.400Z,83.74
2018-09-21T06:05:35.399Z,83.93
2018-09-21T06:06:35.278Z,83.93
2018-09-21T06:07:35.279Z,84.60
2018-09-21T06:08:35.161Z,83.84
2018-09-21T06:09:35.161Z,83.97
2018-09-21T06:10:35.074Z,84.17
2018-09-21T06:11:35.164Z,83.69
2018-09-21T06:12:34.957Z,83.93
2018-09-21T06:13:34.971Z,84.26
2018-09-21T06:14:34.926Z,84.41
2018-09-21T06:15:34.928Z,84.41
2018-09-21T06:16:34.928Z,84.26
2018-09-21T06:17:34.931Z,83.69
2018-09-21T06:18:34.930Z,83.01
2018-09-21T06:19:34.856Z,83.30
2018-09-21T06:20:34.692Z,83.20
2018-09-21T06:21:34.695Z,83.11
2018-09-21T06:22:44.849Z,83.11
2018-09-21T06:23:34.696Z,83.40
2018-09-21T06:24:34.576Z,82.76
2018-09-21T06:25:34.457Z,82.38
2018-09-21T06:26:34.457Z,82.19
2018-09-21T06:27:34.458Z,82.48
2018-09-21T06:28:34.460Z,82.38
2018-09-21T06:29:34.342Z,82.19
2018-09-21T06:30:34.223Z,82.48
2018-09-21T06:31:34.225Z,82.19
2018-09-21T06:32:34.225Z,81.52
2018-09-21T06:33:34.224Z,82.29
2018-09-21T06:34:34.105Z,81.71
2018-09-21T06:35:33.986Z,81.61
2018-09-21T06:36:33.986Z,81.52
2018-09-21T06:37:33.988Z,81.52
2018-09-21T06:38:33.988Z,81.71
2018-09-21T06:39:33.869Z,81.61
2018-09-21T06:40:33.871Z,81.37
2018-09-21T06:41:33.752Z,81.71
2018-09-21T06:42:33.755Z,81.75
2018-09-21T06:43:33.754Z,81.75
2018-09-21T06:44:33.638Z,81.65
2018-09-21T06:45:33.637Z,81.27
2018-09-21T06:46:33.516Z,81.84
2018-09-21T06:47:33.518Z,81.94
2018-09-21T06:48:33.517Z,82.14
2018-09-21T06:49:33.403Z,81.94
2018-09-21T06:50:33.403Z,81.46
2018-09-21T06:51:33.403Z,80.88
2018-09-21T06:52:33.284Z,80.88
2018-09-21T06:53:33.165Z,81.27
2018-09-21T06:54:33.166Z,80.60
2018-09-21T06:55:33.165Z,80.60
2018-09-21T06:56:33.168Z,80.98
2018-09-21T06:57:33.049Z,81.02
2018-09-21T06:58:33.050Z,81.12
2018-09-21T06:59:33.051Z,80.83
2018-09-21T07:00:32.932Z,80.73
2018-09-21T07:01:32.894Z,80.06
2018-09-21T07:02:32.814Z,79.86
2018-09-21T07:03:32.813Z,79.38
2018-09-21T07:04:32.814Z,79.19
2018-09-21T07:05:32.695Z,79.19
2018-09-21T07:06:32.577Z,78.13
2018-09-21T07:07:32.577Z,78.17
2018-09-21T07:08:32.577Z,77.31
2018-09-21T07:09:32.578Z,76.92
2018-09-21T07:10:32.462Z,75.67
2018-09-21T07:11:32.459Z,76.18
2018-09-21T07:12:32.342Z,75.32
2018-09-21T07:13:32.343Z,75.32
2018-09-21T07:14:32.342Z,74.74
2018-09-21T07:15:32.225Z,74.55
2018-09-21T07:16:32.225Z,73.39
2018-09-21T07:17:32.105Z,73.30
2018-09-21T07:18:32.106Z,73.05
2018-09-21T07:19:32.107Z,72.95
2018-09-21T07:20:31.923Z,72.47
2018-09-21T07:21:31.989Z,72.37
2018-09-21T07:22:31.806Z,70.76
2018-09-21T07:23:31.804Z,69.71
2018-09-21T07:24:31.925Z,69.61
2018-09-21T07:25:31.688Z,69.32
2018-09-21T07:26:31.805Z,69.32
2018-09-21T07:27:31.642Z,69.23
2018-09-21T07:28:31.523Z,69.03
2018-09-21T07:29:31.639Z,69.13
2018-09-21T07:30:31.518Z,69.23
2018-09-21T07:31:31.408Z,69.32
2018-09-21T07:32:31.407Z,69.42
2018-09-21T07:33:31.406Z,69.80
2018-09-21T07:34:31.290Z,69.90
2018-09-21T07:35:31.291Z,69.90
2018-09-21T07:36:31.213Z,69.51
2018-09-21T07:37:31.231Z,70.54
2018-09-21T07:38:31.092Z,70.92
2018-09-21T07:39:31.053Z,70.92
2018-09-21T07:40:31.054Z,70.64
2018-09-21T07:41:31.053Z,70.54
2018-09-21T07:42:30.936Z,70.44
2018-09-21T07:43:30.954Z,70.92
2018-09-21T07:44:30.921Z,70.35
2018-09-21T07:45:30.817Z,71.02
2018-09-21T07:46:30.818Z,71.50
2018-09-21T07:47:31.820Z,70.73
2018-09-21T07:48:30.698Z,70.35
2018-09-21T07:49:30.621Z,70.73
2018-09-21T07:50:30.622Z,70.73
2018-09-21T07:51:30.583Z,71.02
2018-09-21T07:52:30.500Z,70.35
2018-09-21T07:53:30.498Z,70.83
2018-09-21T07:54:30.433Z,70.92
2018-09-21T07:55:30.346Z,70.92
2018-09-21T07:56:30.348Z,70.48
2018-09-21T07:57:30.345Z,69.51
2018-09-21T07:58:30.230Z,69.13
2018-09-21T07:59:30.228Z,68.26
2018-09-21T08:00:30.233Z,68.07
2018-09-21T08:01:30.108Z,67.52
2018-09-21T08:02:30.024Z,67.04
2018-09-21T08:03:29.995Z,67.46
2018-09-21T08:04:29.992Z,66.85
2018-09-21T08:05:29.992Z,67.23
2018-09-21T08:06:29.873Z,68.16
2018-09-21T08:07:29.874Z,68.74
2018-09-21T08:08:29.797Z,69.23
2018-09-21T08:09:29.790Z,69.23
2018-09-21T08:10:29.799Z,69.61
2018-09-21T08:11:29.665Z,69.71
2018-09-21T08:12:29.639Z,69.77
2018-09-21T08:13:29.562Z,69.57
2018-09-21T08:14:29.522Z,70.35
2018-09-21T08:15:29.563Z,70.92
2018-09-21T08:16:29.435Z,70.83
2018-09-21T08:17:29.405Z,71.31
2018-09-21T08:18:29.406Z,71.89
2018-09-21T08:19:29.414Z,71.89
2018-09-21T08:20:29.286Z,71.70
2018-09-21T08:21:29.320Z,71.12
2018-09-21T08:22:29.171Z,72.08
2018-09-21T08:23:29.169Z,71.79
2018-09-21T08:24:29.090Z,72.37
2018-09-21T08:25:29.052Z,72.95
2018-09-21T08:26:29.113Z,72.85
2018-09-21T08:27:28.962Z,72.47
2018-09-21T08:28:28.934Z,72.47
2018-09-21T08:29:28.935Z,72.37
2018-09-21T08:30:28.817Z,72.37
2018-09-21T08:31:28.904Z,72.85
2018-09-21T08:32:28.738Z,72.47
2018-09-21T08:33:28.750Z,73.05
2018-09-21T08:34:28.700Z,72.75
2018-09-21T08:35:28.618Z,73.24
2018-09-21T08:36:28.581Z,73.53
2018-09-21T08:37:28.510Z,73.14
2018-09-21T08:38:28.589Z,73.53
2018-09-21T08:39:28.466Z,73.53
2018-09-21T08:40:28.392Z,73.33
2018-09-21T08:41:28.365Z,73.05
2018-09-21T08:42:28.351Z,73.72
2018-09-21T08:43:28.354Z,73.72
2018-09-21T08:44:28.229Z,74.30
2018-09-21T08:45:28.250Z,74.01
2018-09-21T08:46:28.122Z,74.40
2018-09-21T08:47:28.112Z,74.01
2018-09-21T08:48:28.125Z,74.68
2018-09-21T08:49:28.037Z,74.58
2018-09-21T08:50:27.996Z,74.68
2018-09-21T08:51:27.918Z,74.88
2018-09-21T08:52:27.878Z,74.20
2018-09-21T08:53:27.882Z,73.95
2018-09-21T08:54:27.883Z,73.75
2018-09-21T08:55:27.766Z,73.72
2018-09-21T08:56:27.683Z,73.95
2018-09-21T08:57:27.652Z,73.62
2018-09-21T08:58:27.644Z,73.66
2018-09-21T08:59:27.652Z,73.18
2018-09-21T09:00:27.524Z,72.54
2018-09-21T09:01:27.526Z,72.44
2018-09-21T09:02:27.410Z,71.77
2018-09-21T09:03:27.435Z,72.06
2018-09-21T09:04:27.409Z,72.54
2018-09-21T09:05:27.289Z,72.02
2018-09-21T09:06:27.289Z,72.89
2018-09-21T09:07:27.205Z,72.79
2018-09-21T09:08:27.173Z,72.89
2018-09-21T09:09:27.176Z,73.27
2018-09-21T09:10:27.059Z,73.18
2018-09-21T09:11:27.056Z,73.66
2018-09-21T09:12:26.970Z,73.18
2018-09-21T09:13:26.938Z,73.27
2018-09-21T09:14:26.972Z,73.08
2018-09-21T09:15:26.851Z,73.66
2018-09-21T09:16:26.940Z,73.95
2018-09-21T09:17:26.826Z,73.47
2018-09-21T09:18:26.741Z,73.95
2018-09-21T09:19:26.702Z,73.66
2018-09-21T09:20:26.617Z,73.75
2018-09-21T09:21:26.705Z,74.05
2018-09-21T09:22:26.585Z,73.66
2018-09-21T09:23:26.507Z,73.85
2018-09-21T09:24:26.498Z,74.05
2018-09-21T09:25:26.469Z,74.05
2018-09-21T09:26:26.491Z,73.60
2018-09-21T09:27:26.351Z,72.92
2018-09-21T09:28:26.272Z,72.48
2018-09-21T09:29:26.237Z,72.67
2018-09-21T09:30:26.237Z,72.48
2018-09-21T09:31:26.238Z,72.00
2018-09-21T09:32:26.116Z,72.19
2018-09-21T09:33:26.116Z,71.32
2018-09-21T09:34:26.118Z,71.12
2018-09-21T09:35:25.998Z,71.16
2018-09-21T09:36:26.001Z,70.78
2018-09-21T09:37:26.000Z,70.16
2018-09-21T09:38:25.881Z,71.03
2018-09-21T09:39:25.802Z,70.74
2018-09-21T09:40:25.764Z,71.80
2018-09-21T09:41:25.763Z,71.90
2018-09-21T09:42:25.765Z,72.00
2018-09-21T09:43:25.698Z,72.58
2018-09-21T09:44:25.647Z,72.67
2018-09-21T09:45:25.565Z,72.67
2018-09-21T09:46:25.528Z,72.67
2018-09-21T09:47:25.534Z,72.00
2018-09-21T09:48:25.465Z,72.09
2018-09-21T09:49:25.414Z,72.38
2018-09-21T09:50:25.324Z,72.96
2018-09-21T09:51:25.412Z,72.86
2018-09-21T09:52:25.414Z,72.38
2018-09-21T09:53:25.295Z,72.67
2018-09-21T09:54:25.297Z,72.48
2018-09-21T09:55:25.297Z,71.94
2018-09-21T09:56:25.178Z,71.94
2018-09-21T09:57:25.306Z,71.84
2018-09-21T09:58:25.060Z,71.74
2018-09-21T09:59:25.060Z,72.03
2018-09-21T10:00:25.061Z,72.22
2018-09-21T10:01:24.944Z,72.03
2018-09-21T10:02:25.063Z,71.45
2018-09-21T10:03:24.970Z,71.94
2018-09-21T10:04:24.946Z,71.16
2018-09-21T10:05:45.826Z,71.26
2018-09-21T10:06:24.827Z,70.97
2018-09-21T10:07:24.709Z,71.55
2018-09-21T10:08:24.713Z,71.64
2018-09-21T10:09:24.710Z,71.45
2018-09-21T10:10:24.611Z,71.55
2018-09-21T10:11:24.593Z,71.16
2018-09-21T10:12:24.592Z,71.64
2018-09-21T10:13:24.475Z,72.03
2018-09-21T10:14:24.595Z,72.03
2018-09-21T10:15:24.358Z,71.84
2018-09-21T10:16:24.386Z,72.03
2018-09-21T10:17:24.359Z,72.13
2018-09-21T10:18:24.251Z,71.94
2018-09-21T10:19:24.361Z,72.42
2018-09-21T10:20:24.122Z,72.71
2018-09-21T10:21:24.121Z,72.16
2018-09-21T10:22:24.124Z,71.78
2018-09-21T10:23:24.003Z,70.94
2018-09-21T10:24:24.126Z,70.17
2018-09-21T10:25:24.006Z,69.40
2018-09-21T10:26:23.887Z,69.33
2018-09-21T10:27:23.905Z,69.14
2018-09-21T10:28:23.941Z,68.85
2018-09-21T10:29:23.889Z,69.40
2018-09-21T10:30:23.773Z,69.53
2018-09-21T10:31:23.651Z,67.98
2018-09-21T10:32:23.660Z,68.75
2018-09-21T10:33:23.682Z,68.62
2018-09-21T10:34:23.655Z,68.91
2018-09-21T10:35:23.594Z,68.85
2018-09-21T10:36:23.549Z,68.24
2018-09-21T10:37:23.419Z,68.24
2018-09-21T10:38:23.422Z,67.94
2018-09-21T10:39:23.650Z,67.66
2018-09-21T10:40:23.450Z,67.75
2018-09-21T10:41:23.300Z,67.75
2018-09-21T10:42:23.342Z,66.88
2018-09-21T10:43:23.182Z,67.24
2018-09-21T10:44:23.186Z,66.94
2018-09-21T10:45:23.185Z,66.66
2018-09-21T10:46:23.068Z,65.78
2018-09-21T10:47:23.082Z,66.50
2018-09-21T10:48:22.946Z,66.20
2018-09-21T10:49:22.950Z,66.69
2018-09-21T10:50:23.070Z,66.98
2018-09-21T10:51:22.949Z,65.92
2018-09-21T10:52:22.831Z,64.85
2018-09-21T10:53:22.832Z,64.95
2018-09-21T10:54:22.717Z,64.08
2018-09-21T10:55:22.833Z,62.24
2018-09-21T10:56:22.714Z,61.98
2018-09-21T10:57:22.532Z,61.02
2018-09-21T10:58:22.595Z,57.82
2018-09-21T10:59:22.413Z,58.12
2018-09-21T11:00:22.422Z,58.60
2018-09-21T11:01:22.532Z,58.98
2018-09-21T11:02:22.294Z,59.47
2018-09-21T11:03:22.294Z,59.86
2018-09-21T11:04:22.292Z,59.47
2018-09-21T11:05:22.176Z,58.34
2018-09-21T11:06:22.175Z,58.04
2018-09-21T11:07:22.169Z,58.34
2018-09-21T11:08:22.011Z,57.37
2018-09-21T11:09:22.013Z,56.43
2018-09-21T11:10:21.950Z,56.40
2018-09-21T11:11:22.015Z,56.21
2018-09-21T11:12:21.896Z,56.50
2018-09-21T11:13:21.827Z,56.88
2018-09-21T11:14:21.817Z,56.21
2018-09-21T11:15:21.777Z,56.50
2018-09-21T11:16:21.778Z,56.30
2018-09-21T11:17:21.701Z,56.30
2018-09-21T11:18:21.662Z,56.50
2018-09-21T11:19:21.582Z,56.40
2018-09-21T11:20:21.542Z,55.99
2018-09-21T11:21:21.541Z,55.99
2018-09-21T11:22:21.464Z,55.70
2018-09-21T11:23:21.423Z,55.89
2018-09-21T11:24:21.426Z,56.35
2018-09-21T11:25:21.307Z,55.47
2018-09-21T11:26:21.304Z,55.87
2018-09-21T11:27:21.307Z,56.45
2018-09-21T11:28:21.230Z,56.63
2018-09-21T11:29:21.189Z,56.63
2018-09-21T11:30:21.115Z,57.51
2018-09-21T11:31:21.070Z,55.96
2018-09-21T11:32:21.072Z,57.48
2018-09-21T11:33:21.072Z,57.48
2018-09-21T11:34:20.987Z,56.93
2018-09-21T11:35:20.989Z,56.73
2018-09-21T11:36:20.867Z,56.45
2018-09-21T11:37:20.834Z,56.25
2018-09-21T11:38:20.835Z,55.67
2018-09-21T11:39:20.749Z,56.22
2018-09-21T11:40:20.717Z,56.61
2018-09-21T11:41:20.637Z,56.15
2018-09-21T11:42:20.600Z,56.05
2018-09-21T11:43:20.599Z,56.22
2018-09-21T11:44:20.600Z,56.22
2018-09-21T11:45:20.480Z,56.32
2018-09-21T11:46:20.485Z,56.73
2018-09-21T11:47:20.509Z,56.05
2018-09-21T11:48:20.400Z,55.96
2018-09-21T11:49:20.365Z,55.77
2018-09-21T11:50:20.366Z,56.35
2018-09-21T11:51:20.247Z,55.29
2018-09-21T11:52:20.247Z,55.38
2018-09-21T11:53:20.150Z,55.47
2018-09-21T11:54:20.128Z,54.99
2018-09-21T11:55:20.170Z,55.02
2018-09-21T11:56:20.014Z,55.02
2018-09-21T11:57:20.012Z,55.21
2018-09-21T11:58:19.936Z,55.21
2018-09-21T11:59:19.895Z,55.02
2018-09-21T12:00:19.934Z,55.09
2018-09-21T12:01:19.811Z,55.47
2018-09-21T12:02:19.778Z,55.96
2018-09-21T12:03:19.813Z,55.19
2018-09-21T12:04:19.702Z,55.38
2018-09-21T12:05:19.660Z,55.38
2018-09-21T12:06:19.661Z,55.67
2018-09-21T12:07:19.568Z,55.38
2018-09-21T12:08:19.583Z,55.19
2018-09-21T12:09:19.477Z,55.29
2018-09-21T12:10:19.427Z,54.99
2018-09-21T12:11:19.426Z,54.51
2018-09-21T12:12:19.340Z,54.41
2018-09-21T12:13:19.361Z,54.22
2018-09-21T12:14:19.309Z,54.41
2018-09-21T12:15:19.230Z,54.32
2018-09-21T12:16:19.191Z,54.03
2018-09-21T12:17:19.193Z,54.32
2018-09-21T12:18:19.192Z,53.28
2018-09-21T12:19:19.074Z,53.16
2018-09-21T12:20:19.006Z,53.19
2018-09-21T12:21:18.980Z,52.48
2018-09-21T12:22:18.956Z,52.58
2018-09-21T12:23:18.968Z,52.67
2018-09-21T12:24:18.853Z,52.00
2018-09-21T12:25:18.889Z,51.81
2018-09-21T12:26:18.765Z,52.19
2018-09-21T12:27:18.720Z,52.48
2018-09-21T12:28:18.722Z,52.39
2018-09-21T12:29:18.643Z,52.29
2018-09-21T12:30:18.719Z,52.97
2018-09-21T12:31:18.621Z,53.25
2018-09-21T12:32:18.492Z,53.06
2018-09-21T12:33:18.496Z,53.35
2018-09-21T12:34:18.406Z,52.55
2018-09-21T12:35:18.412Z,52.87
2018-09-21T12:36:18.452Z,52.75
2018-09-21T12:37:18.300Z,52.65
2018-09-21T12:38:18.263Z,52.75
2018-09-21T12:39:18.253Z,52.65
2018-09-21T12:40:18.262Z,52.84
2018-09-21T12:41:18.136Z,52.65
2018-09-21T12:42:18.135Z,52.29
2018-09-21T12:43:18.143Z,52.26
2018-09-21T12:44:18.020Z,52.26
2018-09-21T12:45:18.027Z,52.55
2018-09-21T12:46:17.905Z,53.13
2018-09-21T12:47:17.915Z,52.94
2018-09-21T12:48:17.821Z,53.13
2018-09-21T12:49:17.785Z,53.13
2018-09-21T12:50:17.925Z,53.33
2018-09-21T12:51:17.702Z,53.13
2018-09-21T12:52:17.668Z,53.61